Time;durP1;ratioP1;P1;durP2;ratioP2;P2;SDS_P1;SDS_P2;PMS_P1;PMS_P2;Temp;Humidity;BMP_temperature;BMP_pressure;BME280_temperature;BME280_humidity;BME280_pressure;Samples;Min_cycle;Max_cycle;Signal;HPM_P1;HPM_P2
2021/07/17 00:00:00;;;;;;;;;14.00;13.00;;;;;19.93;100.00;102274.03;4958697;28;45320;-70
2021/07/17 00:05:47;;;;;;;;;14.50;12.75;;;;;19.93;100.00;102273.19;4958094;28;45882;-67
2021/07/17 00:08:12;;;;;;;;;12.00;11.50;;;;;19.81;100.00;102264.63;4958231;28;45333;-66
2021/07/17 00:10:41;;;;;;;;;14.00;14.00;;;;;19.88;100.00;102283.88;4958263;28;45372;-67
2021/07/17 00:13:07;;;;;;;;;14.00;12.25;;;;;19.87;100.00;102283.00;4958397;28;45467;-66
2021/07/17 00:15:34;;;;;;;;;11.00;11.00;;;;;19.73;100.00;102258.69;4957988;28;47304;-66
2021/07/17 00:18:00;;;;;;;;;13.25;12.75;;;;;19.77;100.00;102268.28;4957759;28;45657;-66
2021/07/17 00:20:25;;;;;;;;;14.00;12.50;;;;;19.80;100.00;102277.94;4957937;28;45392;-69
2021/07/17 00:22:51;;;;;;;;;13.75;12.00;;;;;19.73;100.00;102265.78;4958148;28;45288;-66
2021/07/17 00:25:19;;;;;;;;;16.00;14.00;;;;;19.78;100.00;102280.63;4957797;28;46380;-66
2021/07/17 00:27:45;;;;;;;;;13.50;12.25;;;;;19.75;100.00;102283.38;4957803;28;45504;-70
2021/07/17 00:30:13;;;;;;;;;15.00;13.00;;;;;19.72;100.00;102286.13;4958291;28;45584;-67
2021/07/17 00:32:38;;;;;;;;;17.00;15.75;;;;;19.69;100.00;102280.00;4957949;28;45427;-66
2021/07/17 00:35:06;;;;;;;;;15.75;13.75;;;;;19.66;100.00;102280.09;4957921;28;45980;-66
2021/07/17 00:37:32;;;;;;;;;14.00;12.00;;;;;19.53;100.00;102263.63;4957482;28;45550;-66
2021/07/17 00:39:58;;;;;;;;;13.00;11.00;;;;;19.51;100.00;102268.97;4957959;28;45322;-68
2021/07/17 00:42:23;;;;;;;;;15.75;14.00;;;;;19.58;100.00;102280.31;4957895;28;45241;-66
2021/07/17 00:44:48;;;;;;;;;13.75;12.25;;;;;19.55;100.00;102275.97;4957456;28;47223;-66
2021/07/17 00:50:35;;;;;;;;;10.25;10.00;;;;;19.51;100.00;102276.94;4957896;28;45407;-67
2021/07/17 00:53:02;;;;;;;;;14.25;13.00;;;;;19.49;100.00;102277.88;4957758;28;45321;-67
2021/07/17 00:55:28;;;;;;;;;12.50;11.25;;;;;19.45;100.00;102277.06;4957422;28;47376;-66
2021/07/17 00:57:55;;;;;;;;;11.50;10.50;;;;;19.47;100.00;102287.66;4957720;28;45405;-66
2021/07/17 01:00:21;;;;;;;;;16.00;14.50;;;;;19.42;100.00;102276.28;4957777;28;45321;-68
2021/07/17 01:02:58;;;;;;;;;12.50;12.25;;;;;19.40;100.00;102278.97;4958014;28;45407;-66
2021/07/17 01:05:24;;;;;;;;;14.75;14.00;;;;;19.40;100.00;102283.41;4957436;28;45521;-66
2021/07/17 01:07:50;;;;;;;;;12.75;11.75;;;;;19.37;100.00;102286.16;4957735;28;45400;-66
2021/07/17 01:10:18;;;;;;;;;14.00;11.75;;;;;19.33;100.00;102285.34;4957604;28;45329;-66
2021/07/17 01:12:45;;;;;;;;;13.50;13.00;;;;;19.35;100.00;102290.63;4957750;28;45415;-66
2021/07/17 01:15:10;;;;;;;;;15.00;11.75;;;;;19.30;100.00;102287.22;4957108;28;47730;-66
2021/07/17 01:20:58;;;;;;;;;15.00;13.00;;;;;19.19;100.00;102275.09;4958928;28;45550;-67
2021/07/17 01:23:24;;;;;;;;;15.75;14.25;;;;;19.16;100.00;102269.91;4960945;28;45508;-67
2021/07/17 01:25:50;;;;;;;;;18.25;15.75;;;;;19.17;100.00;102271.63;4960310;28;46333;-67
2021/07/17 01:28:15;;;;;;;;;14.00;13.25;;;;;19.17;100.00;102276.94;4960433;28;45312;-68
2021/07/17 01:30:40;;;;;;;;;10.25;10.25;;;;;19.12;100.00;102273.53;4960891;28;45312;-66
2021/07/17 01:33:07;;;;;;;;;13.50;12.50;;;;;19.16;100.00;102291.06;4960775;28;45561;-66
2021/07/17 01:35:34;;;;;;;;;13.00;12.00;;;;;19.10;100.00;102279.78;4960416;28;46170;-65
2021/07/17 01:37:59;;;;;;;;;16.00;13.00;;;;;19.08;100.00;102279.81;4960104;28;45629;-66
2021/07/17 01:40:25;;;;;;;;;15.50;13.75;;;;;19.08;100.00;102269.22;4960280;28;45439;-67
2021/07/17 01:42:57;;;;;;;;;14.50;11.75;;;;;19.02;100.00;102266.75;4960912;28;45237;-65
2021/07/17 01:45:26;;;;;;;;;12.00;11.25;;;;;19.03;100.00;102272.91;4943450;28;46304;-66
2021/07/17 01:51:13;;;;;;;;;12.50;12.00;;;;;18.89;100.00;102257.34;4960526;28;45361;-66
2021/07/17 01:53:38;;;;;;;;;14.00;12.25;;;;;18.96;100.00;102275.69;4960447;28;45419;-66
2021/07/17 01:56:05;;;;;;;;;16.25;14.00;;;;;18.97;100.00;102273.91;4959980;28;46969;-66
2021/07/17 01:58:30;;;;;;;;;16.00;14.75;;;;;18.95;100.00;102270.44;4960109;28;45772;-66
2021/07/17 02:00:55;;;;;;;;;13.50;12.50;;;;;18.90;100.00;102280.25;4959957;28;45502;-65
2021/07/17 02:03:21;;;;;;;;;14.75;12.75;;;;;18.88;100.00;102274.13;4960382;28;45454;-66
2021/07/17 02:05:46;;;;;;;;;16.50;14.50;;;;;18.83;100.00;102268.97;4960135;28;45311;-66
2021/07/17 02:08:13;;;;;;;;;16.75;14.25;;;;;18.87;100.00;102277.69;4960213;28;45249;-66
2021/07/17 02:10:38;;;;;;;;;15.75;14.00;;;;;18.75;100.00;102259.44;4960046;28;45285;-66
2021/07/17 02:13:13;;;;;;;;;16.75;15.25;;;;;18.84;100.00;102275.13;4960538;28;45339;-66
2021/07/17 02:22:22;;;;;;;;;16.00;13.75;;;;;18.65;100.00;102266.75;4958924;28;45636;-66
2021/07/17 02:24:47;;;;;;;;;16.75;15.25;;;;;18.66;100.00;102272.00;4959858;28;45356;-70
2021/07/17 02:27:13;;;;;;;;;15.50;13.75;;;;;18.70;100.00;102271.94;4959750;28;45600;-66
2021/07/17 02:29:38;;;;;;;;;14.00;12.50;;;;;18.63;100.00;102266.78;4959906;28;45440;-67
2021/07/17 02:35:25;;;;;;;;;13.50;13.00;;;;;18.61;100.00;102273.00;4959862;28;45333;-65
2021/07/17 02:37:51;;;;;;;;;16.00;15.50;;;;;18.57;100.00;102271.31;4959458;28;45615;-66
2021/07/17 02:40:17;;;;;;;;;17.50;15.50;;;;;18.59;100.00;102273.03;4959397;28;45424;-66
2021/07/17 02:42:43;;;;;;;;;15.50;14.00;;;;;18.57;100.00;102272.19;4959432;28;45427;-68
2021/07/17 02:45:09;;;;;;;;;17.25;15.50;;;;;18.54;100.00;102268.72;4959704;28;45472;-66
2021/07/17 02:50:56;;;;;;;;;16.25;14.25;;;;;18.47;100.00;102265.34;4959383;28;45213;-66
2021/07/17 02:53:21;;;;;;;;;14.25;14.00;;;;;18.44;100.00;102259.28;4959641;28;45412;-66
2021/07/17 02:55:47;;;;;;;;;16.25;13.00;;;;;18.48;100.00;102271.50;4959717;28;45295;-67
2021/07/17 02:58:12;;;;;;;;;13.00;13.00;;;;;18.47;100.00;102272.44;4959297;28;46549;-67
2021/07/17 03:00:38;;;;;;;;;16.00;14.25;;;;;18.46;100.00;102282.13;4941499;28;45335;-67
2021/07/17 03:06:25;;;;;;;;;13.75;10.75;;;;;18.39;100.00;102264.66;4959337;28;45555;-66
2021/07/17 03:08:50;;;;;;;;;13.75;13.00;;;;;18.41;100.00;102270.78;4941483;28;45729;-66
2021/07/17 03:11:15;;;;;;;;;16.00;13.25;;;;;18.34;100.00;102264.78;4959067;28;45341;-68
2021/07/17 03:13:41;;;;;;;;;13.25;12.50;;;;;18.38;100.00;102272.63;4959202;28;45449;-66
2021/07/17 03:16:06;;;;;;;;;14.50;13.75;;;;;18.39;100.00;102279.66;4959069;28;45439;-68
2021/07/17 03:18:31;;;;;;;;;17.50;15.50;;;;;18.38;100.00;102281.44;4958783;28;46144;-66
2021/07/17 03:20:57;;;;;;;;;17.75;14.00;;;;;18.40;100.00;102273.47;4958941;28;45435;-66
2021/07/17 03:23:23;;;;;;;;;15.00;13.25;;;;;18.41;100.00;102275.22;4959314;28;45499;-66
2021/07/17 03:25:48;;;;;;;;;18.75;17.25;;;;;18.30;100.00;102255.16;4959116;28;45414;-66
2021/07/17 03:28:13;;;;;;;;;13.50;13.25;;;;;18.34;100.00;102259.50;4958710;28;46002;-66
2021/07/17 03:30:39;;;;;;;;;17.25;16.00;;;;;18.36;100.00;102272.69;4941180;28;45482;-66
2021/07/17 03:36:27;;;;;;;;;13.75;13.00;;;;;18.38;100.00;102283.22;4958879;28;45492;-67
2021/07/17 03:38:52;;;;;;;;;16.75;14.00;;;;;18.37;100.00;102274.41;4958469;28;47063;-66
2021/07/17 03:41:18;;;;;;;;;15.50;14.25;;;;;18.32;100.00;102269.19;4958623;28;45420;-66
2021/07/17 03:43:45;;;;;;;;;16.75;14.50;;;;;18.36;100.00;102272.69;4958220;28;45481;-70
2021/07/17 03:46:10;;;;;;;;;18.00;14.00;;;;;18.34;100.00;102266.56;4958605;28;45597;-67
2021/07/17 03:48:36;;;;;;;;;16.00;13.25;;;;;18.38;100.00;102273.50;4958380;28;46361;-67
2021/07/17 03:51:02;;;;;;;;;18.50;15.00;;;;;18.40;100.00;102270.84;4958295;28;45292;-66
2021/07/17 03:53:28;;;;;;;;;17.75;14.25;;;;;18.37;100.00;102263.84;4958488;28;45404;-67
2021/07/17 03:55:53;;;;;;;;;16.50;14.75;;;;;18.47;100.00;102273.28;4941336;28;45414;-66
2021/07/17 03:58:19;;;;;;;;;18.00;15.75;;;;;18.47;100.00;102275.06;4958161;28;47240;-68
2021/07/17 04:00:44;;;;;;;;;19.25;15.50;;;;;18.46;100.00;102271.56;4958534;28;45310;-66
2021/07/17 04:06:31;;;;;;;;;17.00;14.75;;;;;18.57;100.00;102280.13;4958532;28;45325;-66
2021/07/17 04:08:56;;;;;;;;;17.25;17.25;;;;;18.60;100.00;102282.69;4958374;28;45696;-69
2021/07/17 04:11:22;;;;;;;;;15.25;14.75;;;;;18.64;100.00;102286.19;4958281;28;45321;-66
2021/07/17 04:13:47;;;;;;;;;15.75;15.50;;;;;18.64;100.00;102276.47;4958616;28;45396;-67
2021/07/17 04:16:12;;;;;;;;;15.75;13.75;;;;;18.65;100.00;102275.56;4958376;28;45354;-66
2021/07/17 04:21:59;;;;;;;;;17.00;13.50;;;;;18.70;100.00;102280.75;4956625;28;46229;-66
2021/07/17 04:24:25;;;;;;;;;15.75;14.00;;;;;18.79;100.00;102290.25;4940897;28;45384;-67
2021/07/17 04:26:50;;;;;;;;;17.75;16.00;;;;;18.79;100.00;102291.13;4958175;28;45420;-66
2021/07/17 04:29:15;;;;;;;;;15.75;13.75;;;;;18.82;100.00;102287.53;4958262;28;46494;-67
2021/07/17 04:31:41;;;;;;;;;18.00;15.25;;;;;18.81;100.00;102284.00;4957792;28;45389;-67
2021/07/17 04:34:06;;;;;;;;;15.25;13.75;;;;;18.88;100.00;102295.31;4957997;28;45598;-66
2021/07/17 04:36:32;;;;;;;;;15.50;14.25;;;;;18.86;100.00;102289.19;4958482;28;45382;-66
2021/07/17 04:38:58;;;;;;;;;18.00;15.00;;;;;18.87;100.00;102283.00;4957565;28;46471;-65
2021/07/17 04:41:23;;;;;;;;;17.75;16.50;;;;;18.89;100.00;102282.03;4957865;28;45328;-66
2021/07/17 04:43:48;;;;;;;;;16.50;14.25;;;;;18.89;100.00;102279.41;4957945;28;45328;-66
2021/07/17 04:46:14;;;;;;;;;15.75;14.50;;;;;18.93;100.00;102288.13;4958492;28;45338;-65
2021/07/17 04:52:01;;;;;;;;;19.00;16.50;;;;;18.92;100.00;102281.09;4957683;28;45502;-66
2021/07/17 04:54:27;;;;;;;;;17.75;16.00;;;;;18.93;100.00;102289.00;4956775;28;45372;-66
2021/07/17 04:56:52;;;;;;;;;16.75;15.25;;;;;18.95;100.00;102296.91;4958031;28;45385;-67
2021/07/17 04:59:18;;;;;;;;;18.75;17.50;;;;;18.93;100.00;102302.22;4957634;28;45499;-66
2021/07/17 05:01:43;;;;;;;;;18.75;17.00;;;;;18.92;100.00;102302.28;4957549;28;45329;-65
2021/07/17 05:04:10;;;;;;;;;16.75;13.25;;;;;18.91;100.00;102292.59;4957530;28;45344;-66
2021/07/17 05:06:35;;;;;;;;;16.25;14.00;;;;;18.87;100.00;102288.28;4957764;28;45346;-67
2021/07/17 05:09:01;;;;;;;;;19.75;18.00;;;;;18.93;100.00;102296.06;4957545;28;45419;-66
2021/07/17 05:11:26;;;;;;;;;17.75;16.00;;;;;18.96;100.00;102306.56;4957448;28;45458;-66
2021/07/17 05:13:51;;;;;;;;;19.25;15.00;;;;;18.93;100.00;102301.38;4957758;28;45420;-66
2021/07/17 05:16:17;;;;;;;;;18.25;16.25;;;;;18.98;100.00;102304.75;4957674;28;45364;-65
2021/07/17 05:22:04;;;;;;;;;19.00;15.25;;;;;18.96;100.00;102311.88;4957048;28;45656;-67
2021/07/17 05:24:29;;;;;;;;;17.00;15.50;;;;;18.96;100.00;102309.22;4957255;28;45301;-68
2021/07/17 05:26:55;;;;;;;;;15.75;15.50;;;;;18.94;100.00;102309.25;4957494;28;45289;-67
2021/07/17 05:29:20;;;;;;;;;17.75;17.75;;;;;18.94;100.00;102306.63;4957523;28;46127;-68
2021/07/17 05:31:45;;;;;;;;;18.25;15.00;;;;;18.94;100.00;102305.75;4957016;28;45326;-68
2021/07/17 05:34:11;;;;;;;;;17.00;14.25;;;;;18.87;100.00;102289.16;4957425;28;45324;-66
2021/07/17 05:36:36;;;;;;;;;21.25;15.75;;;;;18.92;100.00;102302.28;4940113;28;45634;-66
2021/07/17 05:39:02;;;;;;;;;21.25;18.25;;;;;18.93;100.00;102304.00;4957312;28;45425;-66
2021/07/17 05:41:27;;;;;;;;;16.75;15.25;;;;;18.98;100.00;102300.34;4957237;28;45372;-65
2021/07/17 05:43:53;;;;;;;;;16.50;13.50;;;;;19.07;100.00;102306.34;4957218;28;45422;-66
2021/07/17 05:46:18;;;;;;;;;14.50;14.25;;;;;19.06;100.00;102289.59;4957314;28;45388;-65
2021/07/17 05:52:05;;;;;;;;;18.50;17.75;;;;;19.19;100.00;102284.81;4956935;28;45332;-66
2021/07/17 05:54:31;;;;;;;;;17.25;15.75;;;;;19.20;100.00;102287.44;4956921;28;45373;-66
2021/07/17 05:56:56;;;;;;;;;15.00;14.00;;;;;19.19;100.00;102282.19;4957036;28;45487;-67
2021/07/17 05:59:22;;;;;;;;;19.25;16.25;;;;;19.30;100.00;102297.81;4956279;28;46062;-68
2021/07/17 06:01:47;;;;;;;;;22.50;17.50;;;;;19.29;100.00;102286.34;4955903;28;45380;-69
2021/07/17 06:04:12;;;;;;;;;16.75;14.50;;;;;19.39;100.00;102300.22;4956512;28;45360;-66
2021/07/17 06:06:38;;;;;;;;;18.50;16.25;;;;;19.49;100.00;102307.03;4959305;28;45551;-67
2021/07/17 06:09:03;;;;;;;;;18.50;16.50;;;;;19.55;100.00;102301.59;4959930;28;45399;-67
2021/07/17 06:11:28;;;;;;;;;20.25;18.00;;;;;19.53;100.00;102284.84;4959194;28;45448;-66
2021/07/17 06:13:54;;;;;;;;;18.75;16.00;;;;;19.73;100.00;102297.59;4960028;28;45371;-68
2021/07/17 06:16:19;;;;;;;;;17.00;17.00;;;;;19.72;100.00;102286.13;4959926;28;45379;-67
2021/07/17 06:22:06;;;;;;;;;18.00;17.25;;;;;19.92;100.00;102297.94;4959249;28;45495;-66
2021/07/17 06:24:31;;;;;;;;;19.25;16.25;;;;;19.96;100.00;102296.94;4959548;28;45453;-67
2021/07/17 06:26:57;;;;;;;;;19.00;18.75;;;;;19.95;100.00;102295.19;4959797;28;45320;-67
2021/07/17 06:29:22;;;;;;;;;17.25;16.75;;;;;20.03;100.00;102303.78;4959628;28;46161;-68
2021/07/17 06:31:47;;;;;;;;;21.50;19.75;;;;;20.11;100.00;102309.75;4959203;28;45456;-71
2021/07/17 06:34:14;;;;;;;;;21.75;20.50;;;;;20.20;100.00;102306.84;4960001;28;45467;-67
2021/07/17 06:36:39;;;;;;;;;19.75;19.00;;;;;20.24;100.00;102305.81;4959946;28;45457;-67
2021/07/17 06:39:05;;;;;;;;;23.75;19.50;;;;;20.34;100.00;102303.75;4959154;28;46391;-68
2021/07/17 06:41:30;;;;;;;;;20.75;19.25;;;;;20.46;100.00;102319.34;4959136;28;45380;-68
2021/07/17 06:43:55;;;;;;;;;22.75;19.75;;;;;20.52;100.00;102320.94;4959101;28;45402;-68
2021/07/17 06:46:21;;;;;;;;;24.75;20.50;;;;;20.51;100.00;102316.56;4959487;28;45589;-72
2021/07/17 06:52:08;;;;;;;;;18.75;18.50;;;;;20.56;100.00;102323.44;4958882;28;45398;-67
2021/07/17 06:54:33;;;;;;;;;22.00;19.50;;;;;20.63;100.00;102318.84;4959030;28;45436;-67
2021/07/17 06:56:58;;;;;;;;;20.50;19.50;;;;;20.71;100.00;102327.44;4958953;28;45560;-67
2021/07/17 06:59:24;;;;;;;;;20.75;20.25;;;;;20.82;100.00;102322.66;4958817;28;45627;-66
2021/07/17 07:01:49;;;;;;;;;22.50;20.75;;;;;20.92;100.00;102325.88;4958918;28;45464;-67
2021/07/17 07:07:37;;;;;;;;;26.25;20.50;;;;;21.01;100.00;102309.66;4959326;28;45338;-68
2021/07/17 07:10:05;;;;;;;;;23.00;20.00;;;;;21.27;100.00;102341.56;4959066;28;45432;-68
2021/07/17 07:12:32;;;;;;;;;24.75;24.00;;;;;21.33;100.00;102345.81;4958670;28;45373;-67
2021/07/17 07:14:57;;;;;;;;;20.00;19.75;;;;;21.30;100.00;102336.16;4959102;28;45407;-68
2021/07/17 07:17:22;;;;;;;;;24.00;22.25;;;;;21.27;100.00;102322.09;4957915;28;45354;-70
2021/07/17 07:19:48;;;;;;;;;21.75;20.50;;;;;21.32;100.00;102334.31;4958631;28;46279;-69
2021/07/17 07:22:13;;;;;;;;;21.25;19.75;;;;;21.32;100.00;102333.47;4958459;28;45335;-68
2021/07/17 07:24:39;;;;;;;;;22.50;19.75;;;;;21.33;100.00;102332.53;4958551;28;45395;-71
2021/07/17 07:27:04;;;;;;;;;24.25;23.00;;;;;21.38;100.00;102342.09;4959128;28;45349;-68
2021/07/17 07:29:29;;;;;;;;;25.00;21.00;;;;;21.34;100.00;102329.81;4958739;28;46193;-68
2021/07/17 07:31:55;;;;;;;;;20.50;20.00;;;;;21.42;100.00;102353.47;4958159;28;45353;-68
2021/07/17 07:37:42;;;;;;;;;25.00;20.00;;;;;21.47;100.00;102354.19;4958693;28;45245;-67
2021/07/17 07:40:08;;;;;;;;;22.75;22.00;;;;;21.53;100.00;102361.97;4958361;28;46095;-68
2021/07/17 07:42:33;;;;;;;;;30.25;25.25;;;;;21.63;100.00;102360.72;4958402;28;45448;-67
2021/07/17 07:44:59;;;;;;;;;24.25;22.50;;;;;21.85;100.00;102352.00;4958555;28;45875;-67
2021/07/17 07:47:24;;;;;;;;;23.00;19.75;;;;;22.07;100.00;102345.00;4958557;28;45214;-67
2021/07/17 07:49:52;;;;;;;;;27.00;22.25;;;;;22.23;100.00;102330.22;4958450;28;45482;-68
2021/07/17 07:52:18;;;;;;;;;23.00;21.75;;;;;22.42;100.00;102345.50;4958175;28;45669;-68
2021/07/17 07:54:45;;;;;;;;;18.50;18.00;;;;;22.45;100.00;102346.25;4958680;28;45391;-68
2021/07/17 07:57:11;;;;;;;;;25.00;21.50;;;;;22.44;100.00;102352.50;4958301;28;45408;-67
2021/07/17 07:59:37;;;;;;;;;22.25;20.75;;;;;22.39;100.00;102337.59;4957670;28;46494;-70
2021/07/17 08:02:02;;;;;;;;;20.50;19.00;;;;;22.63;100.00;102355.28;4957333;28;45385;-69
2021/07/17 08:07:50;;;;;;;;;28.50;23.75;;;;;22.74;100.00;102355.75;4957399;28;45486;-68
2021/07/17 08:10:16;;;;;;;;;24.50;21.75;;;;;22.71;100.00;102350.56;4957590;28;45500;-68
2021/07/17 08:12:41;;;;;;;;;25.75;23.25;;;;;22.76;100.00;102353.03;4957244;28;45467;-67
2021/07/17 08:15:07;;;;;;;;;22.00;21.00;;;;;22.76;100.00;102363.69;4957667;28;45370;-68
2021/07/17 08:17:33;;;;;;;;;21.25;20.00;;;;;22.75;100.00;102354.81;4957655;28;45373;-67
2021/07/17 08:19:58;;;;;;;;;24.25;22.25;;;;;22.76;100.00;102361.88;4957339;28;46160;-68
2021/07/17 08:22:24;;;;;;;;;22.50;19.25;;;;;22.78;100.00;102364.47;4957383;28;45507;-68
2021/07/17 08:24:49;;;;;;;;;21.75;20.50;;;;;22.74;100.00;102345.09;4957562;28;45280;-69
2021/07/17 08:27:15;;;;;;;;;22.50;19.50;;;;;22.91;100.00;102353.31;4957977;28;45480;-68
2021/07/17 08:29:40;;;;;;;;;20.00;17.50;;;;;23.11;100.00;102339.19;4956257;28;45937;-70
2021/07/17 08:32:06;;;;;;;;;22.50;19.00;;;;;23.41;100.00;102361.03;4957487;28;45779;-68
2021/07/17 08:37:53;;;;;;;;;23.00;19.25;;;;;23.92;100.00;102346.41;4957659;28;45301;-67
2021/07/17 08:40:19;;;;;;;;;20.50;19.75;;;;;24.09;100.00;102338.50;4957411;28;46562;-67
2021/07/17 08:42:47;;;;;;;;;24.50;20.00;;;;;24.29;100.00;102347.44;4957749;28;45312;-67
2021/07/17 08:45:14;;;;;;;;;19.25;19.25;;;;;24.43;100.00;102339.63;4957338;28;45375;-68
2021/07/17 08:47:42;;;;;;;;;19.00;19.00;;;;;24.62;100.00;102353.88;4957360;28;45590;-67
2021/07/17 08:50:10;;;;;;;;;22.25;19.50;;;;;24.72;100.00;102351.66;4957484;28;46298;-67
2021/07/17 08:52:36;;;;;;;;;22.00;19.00;;;;;24.90;100.00;102342.75;4957474;28;45313;-69
2021/07/17 08:55:08;;;;;;;;;20.25;18.50;;;;;25.09;100.00;102342.72;4940006;28;45484;-67
2021/07/17 08:57:35;;;;;;;;;21.25;19.00;;;;;25.31;100.00;102345.19;4957556;28;45391;-66
2021/07/17 09:00:15;;;;;;;;;24.25;22.25;;;;;25.48;100.00;102347.88;4957430;28;45570;-67
2021/07/17 09:09:26;;;;;;;;;23.25;20.25;;;;;25.87;100.00;102344.97;4957236;28;45409;-68
2021/07/17 09:11:51;;;;;;;;;19.75;18.25;;;;;26.04;100.00;102336.03;4957263;28;45376;-67
2021/07/17 09:14:34;;;;;;;;;21.25;19.25;;;;;26.31;100.00;102347.06;4939686;28;45448;-68
2021/07/17 09:17:00;;;;;;;;;20.00;19.50;;;;;26.53;100.00;102339.59;4956647;28;45409;-68
2021/07/17 09:19:25;;;;;;;;;21.75;18.75;;;;;26.81;100.00;102338.03;4956969;28;45487;-67
2021/07/17 09:21:55;;;;;;;;;22.00;21.00;;;;;26.98;100.00;102329.03;4956730;28;45353;-67
2021/07/17 09:24:20;;;;;;;;;22.00;19.75;;;;;27.25;100.00;102338.16;4956713;28;45364;-67
2021/07/17 09:26:58;;;;;;;;;21.00;20.00;;;;;27.44;100.00;102329.91;4957463;28;45550;-68
2021/07/17 09:29:34;;;;;;;;;21.75;20.50;;;;;27.55;100.00;102332.78;4957209;28;45516;-66
2021/07/17 09:32:00;;;;;;;;;19.00;16.00;;;;;27.70;100.00;102334.59;4956581;28;47112;-67
2021/07/17 09:34:32;;;;;;;;;20.75;18.00;;;;;27.71;100.00;102322.88;4956666;28;45347;-67
2021/07/17 09:36:59;;;;;;;;;21.75;19.00;;;;;27.93;100.00;102335.00;4956650;28;45261;-67
2021/07/17 09:39:31;;;;;;;;;20.50;17.00;;;;;28.09;100.00;102327.72;4957146;28;45508;-67
2021/07/17 09:42:02;;;;;;;;;22.50;18.50;;;;;28.34;100.00;102325.22;4959587;28;46293;-67
2021/07/17 09:44:29;;;;;;;;;18.75;18.50;;;;;28.60;100.00;102333.44;4960052;28;45623;-67
2021/07/17 09:46:55;;;;;;;;;21.50;16.75;;;;;28.65;100.00;102328.59;4960215;28;45387;-67
2021/07/17 09:49:22;;;;;;;;;21.75;19.75;;;;;28.59;100.00;102320.97;4960255;28;45552;-67
2021/07/17 09:52:04;;;;;;;;;24.25;21.25;;;;;28.51;100.00;102299.94;4959559;28;46273;-67
2021/07/17 09:54:29;;;;;;;;;20.50;19.25;;;;;28.57;100.00;102306.75;4960105;28;45651;-67
2021/07/17 09:57:00;;;;;;;;;21.00;17.25;;;;;28.62;100.00;102324.31;4960172;28;45615;-67
2021/07/17 09:59:25;;;;;;;;;18.25;17.50;;;;;28.53;100.00;102313.31;4960092;28;45398;-67
2021/07/17 10:01:51;;;;;;;;;21.25;18.50;;;;;28.52;100.00;102317.81;4959544;28;47553;-68
2021/07/17 10:04:16;;;;;;;;;21.75;18.50;;;;;28.80;100.00;102327.63;4959856;28;45400;-68
2021/07/17 10:07:01;;;;;;;;;20.50;18.75;;;;;29.00;100.00;102318.25;4959768;28;45593;-68
2021/07/17 10:09:33;;;;;;;;;18.75;16.00;;;;;29.57;100.00;102326.03;4960513;28;45345;-68
2021/07/17 10:12:00;;;;;;;;;17.25;17.25;;;;;29.66;100.00;102317.34;4959552;28;46775;-68
2021/07/17 10:14:33;;;;;;;;;17.50;16.00;;;;;30.28;100.00;102316.53;4959541;28;45557;-66
2021/07/17 10:17:03;;;;;;;;;19.75;18.00;;;;;30.72;100.00;102316.88;4959393;28;45332;-67
2021/07/17 10:19:29;;;;;;;;;18.00;17.25;;;;;30.40;100.00;102311.13;4959806;28;45400;-67
2021/07/17 10:21:55;;;;;;;;;18.00;15.25;;;;;30.04;100.00;102314.66;4959280;28;46351;-67
2021/07/17 10:24:22;;;;;;;;;20.50;17.50;;;;;29.65;100.00;102317.41;4959582;28;45395;-68
2021/07/17 10:26:49;;;;;;;;;21.00;18.00;;;;;29.26;100.00;102308.44;4959505;28;45364;-68
2021/07/17 10:29:18;;;;;;;;;19.00;17.75;;;;;29.03;100.00;102333.31;4959614;28;45277;-68
2021/07/17 10:31:45;;;;;;;;;22.25;20.50;;;;;28.76;100.00;102322.53;4959072;28;47366;-67
2021/07/17 10:34:11;;;;;;;;;20.50;19.75;;;;;28.58;100.00;102325.47;4959246;28;45378;-67
2021/07/17 10:36:44;;;;;;;;;22.75;17.75;;;;;28.42;100.00;102316.66;4959299;28;45313;-67
2021/07/17 10:39:11;;;;;;;;;19.00;18.00;;;;;28.52;100.00;102317.81;4959590;28;45515;-67
2021/07/17 10:41:41;;;;;;;;;16.25;15.00;;;;;28.53;100.00;102318.66;4959373;28;46425;-69
2021/07/17 10:44:07;;;;;;;;;19.25;15.50;;;;;28.81;100.00;102325.78;4959128;28;45606;-68
2021/07/17 10:46:36;;;;;;;;;17.50;17.50;;;;;29.03;100.00;102323.44;4959350;28;45384;-67
2021/07/17 10:49:05;;;;;;;;;21.00;18.25;;;;;29.08;100.00;102320.44;4959550;28;45446;-67
2021/07/17 10:51:34;;;;;;;;;18.50;17.00;;;;;29.08;100.00;102317.75;4940861;28;46880;-67
2021/07/17 10:54:03;;;;;;;;;22.50;19.00;;;;;29.05;100.00;102323.31;4958935;28;45362;-67
2021/07/17 10:56:28;;;;;;;;;16.00;16.00;;;;;29.25;100.00;102323.72;4959400;28;45381;-68
2021/07/17 10:58:57;;;;;;;;;19.50;17.50;;;;;29.16;100.00;102313.56;4959036;28;45321;-68
2021/07/17 11:01:23;;;;;;;;;17.25;16.00;;;;;29.19;100.00;102318.72;4959230;28;45469;-68
2021/07/17 11:03:49;;;;;;;;;18.00;15.75;;;;;29.14;100.00;102318.19;4959010;28;45388;-67
2021/07/17 11:06:36;;;;;;;;;18.50;14.50;;;;;28.95;100.00;102298.84;4959263;28;45359;-67
2021/07/17 11:09:30;;;;;;;;;18.00;17.00;;;;;29.01;100.00;102311.06;4959213;28;45471;-67
2021/07/17 11:12:17;;;;;;;;;17.50;17.00;;;;;28.98;100.00;102312.13;4958614;28;47080;-67
2021/07/17 11:14:43;;;;;;;;;19.25;18.25;;;;;28.84;100.00;102310.31;4958526;28;45300;-68
2021/07/17 11:17:09;;;;;;;;;18.50;16.50;;;;;28.75;100.00;102310.94;4958737;28;45388;-68
2021/07/17 11:19:34;;;;;;;;;18.75;17.75;;;;;28.60;100.00;102310.09;4959000;28;45344;-67
2021/07/17 11:22:14;;;;;;;;;24.50;22.75;;;;;28.52;100.00;102314.25;4958286;28;46397;-66
2021/07/17 11:24:40;;;;;;;;;19.50;18.75;;;;;28.48;100.00;102310.03;4958533;28;45540;-67
2021/07/17 11:27:14;;;;;;;;;19.50;18.25;;;;;28.69;100.00;102305.94;4958895;28;45507;-67
2021/07/17 11:29:49;;;;;;;;;20.00;17.75;;;;;28.92;100.00;102307.13;4958944;28;45396;-67
2021/07/17 11:32:17;;;;;;;;;22.75;19.75;;;;;29.08;100.00;102307.84;4958317;28;47467;-66
2021/07/17 11:34:54;;;;;;;;;22.25;20.50;;;;;29.81;100.00;102310.00;4958442;28;45277;-68
2021/07/17 11:37:26;;;;;;;;;19.00;17.00;;;;;30.36;100.00;102296.16;4958217;28;45313;-69
2021/07/17 11:39:56;;;;;;;;;20.25;17.50;;;;;30.68;100.00;102301.03;4958609;28;45437;-66
2021/07/17 11:42:22;;;;;;;;;20.75;19.50;;;;;30.73;100.00;102299.72;4958279;28;46390;-66
2021/07/17 11:44:55;;;;;;;;;18.50;16.75;;;;;30.64;100.00;102299.53;4958419;28;45658;-67
2021/07/17 11:47:29;;;;;;;;;21.25;18.50;;;;;31.01;100.00;102287.72;4958353;28;45347;-66
2021/07/17 11:49:55;;;;;;;;;19.00;18.25;;;;;31.96;100.00;102286.59;4958495;28;45607;-70
2021/07/17 11:52:26;;;;;;;;;20.50;17.75;;;;;32.31;100.00;102282.03;4957836;28;46633;-62
2021/07/17 11:54:57;;;;;;;;;19.75;19.00;;;;;32.33;100.00;102280.91;4958226;28;45388;-67
2021/07/17 11:57:28;;;;;;;;;17.50;15.75;;;;;32.06;100.00;102292.09;4957997;28;45408;-68
2021/07/17 11:59:54;;;;;;;;;21.00;18.25;;;;;31.98;100.00;102284.63;4958285;28;45321;-68
2021/07/17 12:02:19;;;;;;;;;19.25;17.50;;;;;31.75;100.00;102290.16;4957719;28;45605;-70
2021/07/17 12:04:53;;;;;;;;;22.25;19.00;;;;;31.43;100.00;102281.84;4957540;28;45401;-69
2021/07/17 12:07:32;;;;;;;;;23.00;18.25;;;;;31.24;100.00;102282.44;4958279;28;45329;-69
2021/07/17 12:10:00;;;;;;;;;23.00;20.00;;;;;31.04;100.00;102283.94;4957896;28;45526;-71
2021/07/17 12:12:32;;;;;;;;;19.75;18.00;;;;;30.83;100.00;102282.84;4957421;28;46174;-70
2021/07/17 12:15:13;;;;;;;;;19.75;18.00;;;;;30.61;100.00;102289.00;4957927;28;45341;-70
2021/07/17 12:17:54;;;;;;;;;23.50;21.25;;;;;30.39;100.00;102287.84;4957402;28;45451;-70